createdAt,value
2023-05-09T00:00:00.236Z,0
2023-05-09T00:16:02.627Z,0
2023-05-09T00:31:04.932Z,0
2023-05-09T00:46:02.278Z,0
2023-05-09T01:00:04.417Z,0
2023-05-09T01:16:01.899Z,0
2023-05-09T01:31:04.268Z,0
2023-05-09T01:46:12.191Z,0
2023-05-09T02:00:03.445Z,0
2023-05-09T02:16:00.853Z,0
2023-05-09T02:31:03.083Z,0
2023-05-09T02:46:00.277Z,0
2023-05-09T03:00:01.997Z,0
2023-05-09T03:16:04.406Z,0
2023-05-09T03:31:01.597Z,0
2023-05-09T03:46:03.570Z,0
2023-05-09T04:00:00.671Z,3
2023-05-09T04:16:03.018Z,16
2023-05-09T04:31:00.262Z,29
2023-05-09T04:46:02.392Z,38
2023-05-09T05:00:04.354Z,47
2023-05-09T05:16:01.938Z,54
2023-05-09T05:31:03.953Z,66
2023-05-09T05:46:01.366Z,65
2023-05-09T06:00:03.396Z,83
2023-05-09T06:16:15.200Z,115
2023-05-09T06:31:00.221Z,167
2023-05-09T06:46:00.223Z,226
2023-05-09T07:00:02.066Z,236
2023-05-09T07:16:04.592Z,178
2023-05-09T07:31:01.700Z,229
2023-05-09T07:46:06.379Z,275
2023-05-09T08:00:00.918Z,233
2023-05-09T08:16:03.349Z,241
2023-05-09T08:31:00.463Z,338
2023-05-09T08:46:02.661Z,346
2023-05-09T09:00:04.519Z,334
2023-05-09T09:16:01.862Z,360
2023-05-09T09:31:04.101Z,422
2023-05-09T09:46:01.274Z,453
2023-05-09T10:00:03.329Z,483
2023-05-09T10:16:00.829Z,560
2023-05-09T10:31:02.823Z,563
2023-05-09T10:45:59.904Z,578
2023-05-09T11:00:01.691Z,627
2023-05-09T11:16:04.033Z,676
2023-05-09T11:31:01.290Z,990
2023-05-09T11:46:03.699Z,844
2023-05-09T12:00:00.583Z,617
2023-05-09T12:16:03.026Z,620
2023-05-09T12:31:00.198Z,616
2023-05-09T12:46:02.550Z,568
2023-05-09T13:00:04.558Z,575
2023-05-09T13:16:01.748Z,768
2023-05-09T13:31:03.848Z,761
2023-05-09T13:46:00.935Z,727
2023-05-09T14:00:02.720Z,722
2023-05-09T14:16:00.141Z,590
2023-05-09T14:31:02.341Z,260
2023-05-09T14:46:04.179Z,237
2023-05-09T15:00:12.516Z,230
2023-05-09T15:16:03.520Z,218
2023-05-09T15:31:00.561Z,249
2023-05-09T15:46:02.810Z,395
2023-05-09T15:59:59.756Z,319
2023-05-09T16:16:02.063Z,277
2023-05-09T16:31:04.280Z,268
2023-05-09T16:46:01.548Z,119
2023-05-09T17:00:03.342Z,70
2023-05-09T17:16:00.704Z,74
2023-05-09T17:31:02.607Z,42
2023-05-09T17:46:00.085Z,25
2023-05-09T18:00:01.872Z,22
2023-05-09T18:16:04.326Z,12
2023-05-09T18:31:01.464Z,1
2023-05-09T18:46:03.740Z,0
2023-05-09T19:00:00.774Z,0
2023-05-09T19:16:03.051Z,0
2023-05-09T19:31:00.266Z,0
2023-05-09T19:46:02.058Z,0
2023-05-09T20:00:03.747Z,0
2023-05-09T20:16:01.054Z,0
2023-05-09T20:31:03.104Z,0
2023-05-09T20:46:00.291Z,0
2023-05-09T21:00:02.163Z,0
2023-05-09T21:16:04.573Z,0
2023-05-09T21:31:01.863Z,0
2023-05-09T21:46:01.362Z,0
2023-05-09T22:00:01.169Z,0
2023-05-09T22:16:03.380Z,0
2023-05-09T22:31:00.448Z,0
2023-05-09T22:46:02.480Z,0
2023-05-09T23:00:04.546Z,0
2023-05-09T23:16:01.969Z,0
2023-05-09T23:31:04.142Z,0
2023-05-09T23:46:01.120Z,0
